sensor_id;sensor_type;location;lat;lon;timestamp;pressure;altitude;pressure_sealevel;temperature;humidity
82418;BME280;72059;53.734;10.260;2023-12-04T00:01:14;101408.36;;;-3.32;96.88
82418;BME280;72059;53.734;10.260;2023-12-04T00:03:42;101404.97;;;-3.37;96.86
82418;BME280;72059;53.734;10.260;2023-12-04T00:06:11;101397.80;;;-3.41;96.84
82418;BME280;72059;53.734;10.260;2023-12-04T00:08:38;101404.05;;;-3.46;96.78
82418;BME280;72059;53.734;10.260;2023-12-04T00:11:06;101395.27;;;-3.50;96.78
82418;BME280;72059;53.734;10.260;2023-12-04T00:13:34;101396.97;;;-3.54;96.80
82418;BME280;72059;53.734;10.260;2023-12-04T00:16:01;101389.05;;;-3.57;96.82
82418;BME280;72059;53.734;10.260;2023-12-04T00:18:29;101393.45;;;-3.59;96.83
82418;BME280;72059;53.734;10.260;2023-12-04T00:20:56;101382.84;;;-3.64;96.85
82418;BME280;72059;53.734;10.260;2023-12-04T00:23:24;101382.53;;;-3.67;96.86
82418;BME280;72059;53.734;10.260;2023-12-04T00:25:51;101381.86;;;-3.70;96.90
82418;BME280;72059;53.734;10.260;2023-12-04T00:28:19;101380.78;;;-3.72;96.90
82418;BME280;72059;53.734;10.260;2023-12-04T00:30:47;101372.36;;;-3.76;96.91
82418;BME280;72059;53.734;10.260;2023-12-04T00:33:14;101373.11;;;-3.77;96.94
82418;BME280;72059;53.734;10.260;2023-12-04T00:35:42;101364.33;;;-3.81;96.97
82418;BME280;72059;53.734;10.260;2023-12-04T00:38:09;101371.02;;;-3.81;97.05
82418;BME280;72059;53.734;10.260;2023-12-04T00:40:37;101368.48;;;-3.81;97.08
82418;BME280;72059;53.734;10.260;2023-12-04T00:43:04;101365.27;;;-3.84;97.11
82418;BME280;72059;53.734;10.260;2023-12-04T00:45:31;101368.39;;;-3.87;97.11
82418;BME280;72059;53.734;10.260;2023-12-04T00:47:59;101358.63;;;-3.87;97.16
82418;BME280;72059;53.734;10.260;2023-12-04T00:50:26;101351.47;;;-3.91;97.21
82418;BME280;72059;53.734;10.260;2023-12-04T00:52:54;101357.01;;;-3.87;97.26
82418;BME280;72059;53.734;10.260;2023-12-04T00:55:21;101359.37;;;-3.88;97.23
82418;BME280;72059;53.734;10.260;2023-12-04T00:57:49;101363.02;;;-3.90;97.26
82418;BME280;72059;53.734;10.260;2023-12-04T01:00:16;101357.44;;;-3.91;97.30
82418;BME280;72059;53.734;10.260;2023-12-04T01:02:44;101360.84;;;-3.90;97.34
82418;BME280;72059;53.734;10.260;2023-12-04T01:05:11;101351.11;;;-3.91;97.37
82418;BME280;72059;53.734;10.260;2023-12-04T01:07:38;101355.59;;;-3.88;97.43
82418;BME280;72059;53.734;10.260;2023-12-04T01:10:06;101355.94;;;-3.89;97.44
82418;BME280;72059;53.734;10.260;2023-12-04T01:12:34;101359.73;;;-3.89;97.49
82418;BME280;72059;53.734;10.260;2023-12-04T01:15:02;101355.03;;;-3.89;97.47
82418;BME280;72059;53.734;10.260;2023-12-04T01:17:29;101343.52;;;-3.91;97.47
82418;BME280;72059;53.734;10.260;2023-12-04T01:19:57;101341.19;;;-3.93;97.46
82418;BME280;72059;53.734;10.260;2023-12-04T01:22:24;101343.72;;;-3.93;97.47
82418;BME280;72059;53.734;10.260;2023-12-04T01:24:52;101342.81;;;-3.93;97.52
82418;BME280;72059;53.734;10.260;2023-12-04T01:27:19;101338.86;;;-3.95;97.53
82418;BME280;72059;53.734;10.260;2023-12-04T01:29:46;101334.55;;;-3.96;97.54
82418;BME280;72059;53.734;10.260;2023-12-04T01:32:14;101325.53;;;-3.97;97.55
82418;BME280;72059;53.734;10.260;2023-12-04T01:34:41;101329.17;;;-3.99;97.55
82418;BME280;72059;53.734;10.260;2023-12-04T01:37:09;101328.66;;;-4.00;97.55
82418;BME280;72059;53.734;10.260;2023-12-04T01:39:36;101325.97;;;-4.02;97.53
82418;BME280;72059;53.734;10.260;2023-12-04T01:42:04;101324.94;;;-4.04;97.53
82418;BME280;72059;53.734;10.260;2023-12-04T01:44:31;101321.73;;;-4.06;97.54
82418;BME280;72059;53.734;10.260;2023-12-04T01:46:58;101324.81;;;-4.09;97.52
82418;BME280;72059;53.734;10.260;2023-12-04T01:49:27;101322.88;;;-4.11;97.51
82418;BME280;72059;53.734;10.260;2023-12-04T01:51:54;101321.84;;;-4.14;97.51
82418;BME280;72059;53.734;10.260;2023-12-04T01:54:22;101323.30;;;-4.16;97.50
82418;BME280;72059;53.734;10.260;2023-12-04T01:56:50;101325.52;;;-4.19;97.48
82418;BME280;72059;53.734;10.260;2023-12-04T01:59:17;101322.66;;;-4.22;97.46
82418;BME280;72059;53.734;10.260;2023-12-04T02:01:44;101314.95;;;-4.23;97.46
82418;BME280;72059;53.734;10.260;2023-12-04T02:04:12;101315.50;;;-4.26;97.48
82418;BME280;72059;53.734;10.260;2023-12-04T02:06:40;101312.69;;;-4.29;97.49
82418;BME280;72059;53.734;10.260;2023-12-04T02:09:08;101315.41;;;-4.31;97.47
82418;BME280;72059;53.734;10.260;2023-12-04T02:11:38;101311.69;;;-4.35;97.46
82418;BME280;72059;53.734;10.260;2023-12-04T02:14:06;101310.45;;;-4.39;97.46
82418;BME280;72059;53.734;10.260;2023-12-04T02:16:36;101310.69;;;-4.41;97.48
82418;BME280;72059;53.734;10.260;2023-12-04T02:19:15;101305.98;;;-4.41;97.48
82418;BME280;72059;53.734;10.260;2023-12-04T02:21:39;101300.61;;;-4.44;97.50
82418;BME280;72059;53.734;10.260;2023-12-04T02:24:06;101298.31;;;-4.46;97.50
82418;BME280;72059;53.734;10.260;2023-12-04T02:26:39;101290.05;;;-4.49;97.50
82418;BME280;72059;53.734;10.260;2023-12-04T02:29:07;101292.02;;;-4.50;97.50
82418;BME280;72059;53.734;10.260;2023-12-04T02:31:35;101286.12;;;-4.54;97.49
82418;BME280;72059;53.734;10.260;2023-12-04T02:34:05;101284.34;;;-4.55;97.47
82418;BME280;72059;53.734;10.260;2023-12-04T02:36:35;101282.41;;;-4.58;97.47
82418;BME280;72059;53.734;10.260;2023-12-04T02:39:03;101276.67;;;-4.60;97.47
82418;BME280;72059;53.734;10.260;2023-12-04T02:41:31;101273.30;;;-4.65;97.45
82418;BME280;72059;53.734;10.260;2023-12-04T02:43:59;101276.22;;;-4.69;97.41
82418;BME280;72059;53.734;10.260;2023-12-04T02:46:26;101276.45;;;-4.71;97.39
82418;BME280;72059;53.734;10.260;2023-12-04T02:48:54;101269.97;;;-4.72;97.38
82418;BME280;72059;53.734;10.260;2023-12-04T02:51:21;101261.19;;;-4.76;97.37
82418;BME280;72059;53.734;10.260;2023-12-04T02:53:48;101258.50;;;-4.78;97.37
82418;BME280;72059;53.734;10.260;2023-12-04T02:56:16;101260.87;;;-4.79;97.39
82418;BME280;72059;53.734;10.260;2023-12-04T02:58:43;101255.66;;;-4.81;97.41
82418;BME280;72059;53.734;10.260;2023-12-04T03:01:11;101249.70;;;-4.81;97.44
82418;BME280;72059;53.734;10.260;2023-12-04T03:03:38;101255.84;;;-4.83;97.44
82418;BME280;72059;53.734;10.260;2023-12-04T03:06:06;101246.33;;;-4.85;97.40
82418;BME280;72059;53.734;10.260;2023-12-04T03:08:33;101243.12;;;-4.88;97.38
82418;BME280;72059;53.734;10.260;2023-12-04T03:11:02;101243.47;;;-4.88;97.39
82418;BME280;72059;53.734;10.260;2023-12-04T03:13:29;101231.07;;;-4.91;97.42
82418;BME280;72059;53.734;10.260;2023-12-04T03:15:57;101235.38;;;-4.90;97.43
82418;BME280;72059;53.734;10.260;2023-12-04T03:18:24;101225.11;;;-4.91;97.45
82418;BME280;72059;53.734;10.260;2023-12-04T03:20:52;101216.66;;;-4.92;97.46
82418;BME280;72059;53.734;10.260;2023-12-04T03:23:19;101217.17;;;-4.91;97.46
82418;BME280;72059;53.734;10.260;2023-12-04T03:25:47;101226.02;;;-4.91;97.48
82418;BME280;72059;53.734;10.260;2023-12-04T03:28:14;101213.91;;;-4.90;97.48
82418;BME280;72059;53.734;10.260;2023-12-04T03:30:42;101213.00;;;-4.90;97.47
82418;BME280;72059;53.734;10.260;2023-12-04T03:33:12;101207.95;;;-4.90;97.49
82418;BME280;72059;53.734;10.260;2023-12-04T03:35:40;101204.03;;;-4.92;97.46
82418;BME280;72059;53.734;10.260;2023-12-04T03:38:07;101210.70;;;-4.92;97.44
82418;BME280;72059;53.734;10.260;2023-12-04T03:40:34;101204.22;;;-4.94;97.41
82418;BME280;72059;53.734;10.260;2023-12-04T03:43:02;101205.84;;;-4.94;97.38
82418;BME280;72059;53.734;10.260;2023-12-04T03:45:29;101194.31;;;-4.96;97.33
82418;BME280;72059;53.734;10.260;2023-12-04T03:47:57;101199.75;;;-4.96;97.32
82418;BME280;72059;53.734;10.260;2023-12-04T03:50:24;101193.05;;;-4.96;97.35
82418;BME280;72059;53.734;10.260;2023-12-04T03:52:51;101191.59;;;-4.94;97.37
82418;BME280;72059;53.734;10.260;2023-12-04T03:55:19;101181.13;;;-4.93;97.37
82418;BME280;72059;53.734;10.260;2023-12-04T03:57:46;101171.91;;;-4.93;97.37
82418;BME280;72059;53.734;10.260;2023-12-04T04:00:14;101167.76;;;-4.92;97.36
82418;BME280;72059;53.734;10.260;2023-12-04T04:02:43;101167.91;;;-4.91;97.39
82418;BME280;72059;53.734;10.260;2023-12-04T04:05:10;101163.90;;;-4.88;97.38
82418;BME280;72059;53.734;10.260;2023-12-04T04:07:39;101154.50;;;-4.86;97.39
82418;BME280;72059;53.734;10.260;2023-12-04T04:10:07;101157.55;;;-4.85;97.38
82418;BME280;72059;53.734;10.260;2023-12-04T04:12:34;101158.97;;;-4.83;97.36
82418;BME280;72059;53.734;10.260;2023-12-04T04:15:02;101146.50;;;-4.82;97.34
82418;BME280;72059;53.734;10.260;2023-12-04T04:17:29;101144.84;;;-4.81;97.30
82418;BME280;72059;53.734;10.260;2023-12-04T04:19:58;101140.70;;;-4.81;97.27
82418;BME280;72059;53.734;10.260;2023-12-04T04:22:26;101134.73;;;-4.81;97.21
82418;BME280;72059;53.734;10.260;2023-12-04T04:24:53;101133.11;;;-4.81;97.16
82418;BME280;72059;53.734;10.260;2023-12-04T04:27:21;101122.11;;;-4.81;97.09
82418;BME280;72059;53.734;10.260;2023-12-04T04:29:48;101121.23;;;-4.82;97.03
82418;BME280;72059;53.734;10.260;2023-12-04T04:32:16;101121.78;;;-4.84;96.99
82418;BME280;72059;53.734;10.260;2023-12-04T04:34:43;101114.59;;;-4.85;96.92
82418;BME280;72059;53.734;10.260;2023-12-04T04:37:10;101118.59;;;-4.87;96.88
82418;BME280;72059;53.734;10.260;2023-12-04T04:39:40;101114.87;;;-4.91;96.81
82418;BME280;72059;53.734;10.260;2023-12-04T04:42:07;101126.98;;;-4.92;96.77
82418;BME280;72059;53.734;10.260;2023-12-04T04:44:34;101127.92;;;-4.95;96.72
82418;BME280;72059;53.734;10.260;2023-12-04T04:47:02;101125.98;;;-4.97;96.67
82418;BME280;72059;53.734;10.260;2023-12-04T04:49:29;101124.92;;;-4.99;96.64
82418;BME280;72059;53.734;10.260;2023-12-04T04:51:57;101124.77;;;-5.01;96.63
82418;BME280;72059;53.734;10.260;2023-12-04T04:54:24;101121.20;;;-5.03;96.61
82418;BME280;72059;53.734;10.260;2023-12-04T04:56:52;101120.30;;;-5.04;96.59
82418;BME280;72059;53.734;10.260;2023-12-04T04:59:19;101113.79;;;-5.01;96.65
82418;BME280;72059;53.734;10.260;2023-12-04T05:01:46;101107.48;;;-4.93;96.74
82418;BME280;72059;53.734;10.260;2023-12-04T05:04:14;101115.63;;;-4.83;96.83
82418;BME280;72059;53.734;10.260;2023-12-04T05:06:41;101109.36;;;-4.74;96.89
82418;BME280;72059;53.734;10.260;2023-12-04T05:09:09;101110.66;;;-4.65;96.93
82418;BME280;72059;53.734;10.260;2023-12-04T05:11:36;101098.26;;;-4.58;96.93
82418;BME280;72059;53.734;10.260;2023-12-04T05:14:03;101099.76;;;-4.52;96.94
82418;BME280;72059;53.734;10.260;2023-12-04T05:16:31;101097.19;;;-4.48;96.96
82418;BME280;72059;53.734;10.260;2023-12-04T05:18:58;101087.74;;;-4.45;96.91
82418;BME280;72059;53.734;10.260;2023-12-04T05:21:26;101089.83;;;-4.41;96.91
82418;BME280;72059;53.734;10.260;2023-12-04T05:23:53;101088.48;;;-4.37;96.90
82418;BME280;72059;53.734;10.260;2023-12-04T05:26:21;101090.61;;;-4.33;96.87
82418;BME280;72059;53.734;10.260;2023-12-04T05:28:48;101088.75;;;-4.31;96.84
82418;BME280;72059;53.734;10.260;2023-12-04T05:31:15;101083.61;;;-4.27;96.82
82418;BME280;72059;53.734;10.260;2023-12-04T05:33:43;101081.75;;;-4.24;96.78
82418;BME280;72059;53.734;10.260;2023-12-04T05:36:10;101079.17;;;-4.21;96.76
82418;BME280;72059;53.734;10.260;2023-12-04T05:38:38;101081.61;;;-4.17;96.73
82418;BME280;72059;53.734;10.260;2023-12-04T05:41:05;101075.95;;;-4.15;96.69
82418;BME280;72059;53.734;10.260;2023-12-04T05:43:33;101075.75;;;-4.13;96.62
82418;BME280;72059;53.734;10.260;2023-12-04T05:46:00;101072.47;;;-4.11;96.53
82418;BME280;72059;53.734;10.260;2023-12-04T05:48:28;101073.97;;;-4.14;96.43
82418;BME280;72059;53.734;10.260;2023-12-04T05:50:55;101069.42;;;-4.13;96.28
82418;BME280;72059;53.734;10.260;2023-12-04T05:53:23;101069.72;;;-4.18;96.05
82418;BME280;72059;53.734;10.260;2023-12-04T05:55:50;101065.62;;;-4.21;95.93
82418;BME280;72059;53.734;10.260;2023-12-04T05:58:17;101061.36;;;-4.26;95.83
82418;BME280;72059;53.734;10.260;2023-12-04T06:00:45;101063.22;;;-4.29;95.78
82418;BME280;72059;53.734;10.260;2023-12-04T06:03:12;101058.92;;;-4.30;95.76
82418;BME280;72059;53.734;10.260;2023-12-04T06:05:40;101065.16;;;-4.26;95.74
82418;BME280;72059;53.734;10.260;2023-12-04T06:08:07;101059.59;;;-4.27;95.68
82418;BME280;72059;53.734;10.260;2023-12-04T06:10:34;101057.37;;;-4.24;95.65
82418;BME280;72059;53.734;10.260;2023-12-04T06:13:02;101052.31;;;-4.24;95.57
82418;BME280;72059;53.734;10.260;2023-12-04T06:15:29;101050.69;;;-4.23;95.48
82418;BME280;72059;53.734;10.260;2023-12-04T06:17:57;101047.77;;;-4.23;95.44
82418;BME280;72059;53.734;10.260;2023-12-04T06:20:24;101043.92;;;-4.19;95.44
82418;BME280;72059;53.734;10.260;2023-12-04T06:22:51;101046.20;;;-4.17;95.39
82418;BME280;72059;53.734;10.260;2023-12-04T06:25:19;101054.19;;;-4.18;95.33
82418;BME280;72059;53.734;10.260;2023-12-04T06:27:47;101044.58;;;-4.17;95.17
82418;BME280;72059;53.734;10.260;2023-12-04T06:30:15;101047.47;;;-4.17;95.03
82418;BME280;72059;53.734;10.260;2023-12-04T06:32:43;101040.03;;;-4.16;94.99
82418;BME280;72059;53.734;10.260;2023-12-04T06:35:11;101039.13;;;-4.16;94.86
82418;BME280;72059;53.734;10.260;2023-12-04T06:37:39;101042.56;;;-4.16;94.79
82418;BME280;72059;53.734;10.260;2023-12-04T06:40:07;101035.58;;;-4.18;94.67
82418;BME280;72059;53.734;10.260;2023-12-04T06:42:37;101032.14;;;-4.19;94.58
82418;BME280;72059;53.734;10.260;2023-12-04T06:45:05;101032.14;;;-4.19;94.54
82418;BME280;72059;53.734;10.260;2023-12-04T06:47:34;101034.31;;;-4.18;94.46
82418;BME280;72059;53.734;10.260;2023-12-04T06:50:01;101034.47;;;-4.17;94.45
82418;BME280;72059;53.734;10.260;2023-12-04T06:52:29;101032.09;;;-4.15;94.39
82418;BME280;72059;53.734;10.260;2023-12-04T06:54:56;101032.24;;;-4.14;94.32
82418;BME280;72059;53.734;10.260;2023-12-04T06:57:24;101028.72;;;-4.10;94.29
82418;BME280;72059;53.734;10.260;2023-12-04T06:59:52;101027.25;;;-4.08;94.19
82418;BME280;72059;53.734;10.260;2023-12-04T07:02:20;101028.81;;;-4.05;94.19
82418;BME280;72059;53.734;10.260;2023-12-04T07:04:47;101026.95;;;-4.03;94.17
82418;BME280;72059;53.734;10.260;2023-12-04T07:07:14;101024.06;;;-4.02;94.13
82418;BME280;72059;53.734;10.260;2023-12-04T07:09:42;101019.27;;;-3.99;94.07
82418;BME280;72059;53.734;10.260;2023-12-04T07:12:09;101019.36;;;-3.94;94.01
82418;BME280;72059;53.734;10.260;2023-12-04T07:14:37;101027.10;;;-3.92;93.86
82418;BME280;72059;53.734;10.260;2023-12-04T07:17:04;101023.45;;;-3.91;93.78
82418;BME280;72059;53.734;10.260;2023-12-04T07:19:32;101021.73;;;-3.87;93.77
82418;BME280;72059;53.734;10.260;2023-12-04T07:21:59;101017.95;;;-3.87;93.70
82418;BME280;72059;53.734;10.260;2023-12-04T07:24:26;101020.84;;;-3.87;93.73
82418;BME280;72059;53.734;10.260;2023-12-04T07:26:54;101021.50;;;-3.84;93.77
82418;BME280;72059;53.734;10.260;2023-12-04T07:29:21;101016.44;;;-3.84;93.83
82418;BME280;72059;53.734;10.260;2023-12-04T07:31:49;101021.05;;;-3.80;93.91
82418;BME280;72059;53.734;10.260;2023-12-04T07:34:16;101016.80;;;-3.76;93.99
82418;BME280;72059;53.734;10.260;2023-12-04T07:36:44;101013.08;;;-3.71;94.05
82418;BME280;72059;53.734;10.260;2023-12-04T07:39:11;101018.80;;;-3.68;94.04
82418;BME280;72059;53.734;10.260;2023-12-04T07:41:39;101015.97;;;-3.63;94.12
82418;BME280;72059;53.734;10.260;2023-12-04T07:44:06;101012.07;;;-3.59;94.19
82418;BME280;72059;53.734;10.260;2023-12-04T07:46:34;101008.21;;;-3.55;94.26
82418;BME280;72059;53.734;10.260;2023-12-04T07:49:02;101011.16;;;-3.51;94.31
82418;BME280;72059;53.734;10.260;2023-12-04T07:51:30;101005.48;;;-3.48;94.36
82418;BME280;72059;53.734;10.260;2023-12-04T07:53:57;100998.63;;;-3.40;94.34
82418;BME280;72059;53.734;10.260;2023-12-04T07:56:24;101000.55;;;-3.38;94.32
82418;BME280;72059;53.734;10.260;2023-12-04T07:58:52;100997.80;;;-3.36;94.40
82418;BME280;72059;53.734;10.260;2023-12-04T08:01:19;100988.64;;;-3.39;94.45
82418;BME280;72059;53.734;10.260;2023-12-04T08:03:47;100983.55;;;-3.30;94.51
82418;BME280;72059;53.734;10.260;2023-12-04T08:06:14;100986.73;;;-3.27;94.53
82418;BME280;72059;53.734;10.260;2023-12-04T08:08:43;100984.50;;;-3.24;94.54
82418;BME280;72059;53.734;10.260;2023-12-04T08:11:11;100984.75;;;-3.21;94.57
82418;BME280;72059;53.734;10.260;2023-12-04T08:13:39;100986.31;;;-3.18;94.58
82418;BME280;72059;53.734;10.260;2023-12-04T08:16:14;100979.61;;;-3.17;94.56
82418;BME280;72059;53.734;10.260;2023-12-04T08:18:41;100979.51;;;-3.14;94.53
82418;BME280;72059;53.734;10.260;2023-12-04T08:21:10;100969.37;;;-3.14;94.45
82418;BME280;72059;53.734;10.260;2023-12-04T08:23:38;100968.25;;;-3.12;94.41
82418;BME280;72059;53.734;10.260;2023-12-04T08:26:05;100967.89;;;-3.12;94.37
82418;BME280;72059;53.734;10.260;2023-12-04T08:28:33;100968.91;;;-3.10;94.31
82418;BME280;72059;53.734;10.260;2023-12-04T08:31:03;100972.70;;;-3.10;94.22
82418;BME280;72059;53.734;10.260;2023-12-04T08:33:30;100966.02;;;-3.09;94.14
82418;BME280;72059;53.734;10.260;2023-12-04T08:35:58;100969.95;;;-3.07;94.09
82418;BME280;72059;53.734;10.260;2023-12-04T08:38:25;100967.93;;;-3.06;94.10
82418;BME280;72059;53.734;10.260;2023-12-04T08:40:53;100965.83;;;-3.02;93.88
82418;BME280;72059;53.734;10.260;2023-12-04T08:43:21;100965.83;;;-3.02;93.88
82418;BME280;72059;53.734;10.260;2023-12-04T08:45:48;100961.23;;;-3.06;93.98
82418;BME280;72059;53.734;10.260;2023-12-04T08:48:16;100967.60;;;-3.01;93.94
82418;BME280;72059;53.734;10.260;2023-12-04T08:50:43;100967.89;;;-2.98;93.88
82418;BME280;72059;53.734;10.260;2023-12-04T08:53:11;100973.10;;;-2.96;93.84
82418;BME280;72059;53.734;10.260;2023-12-04T08:55:38;100952.83;;;-2.96;93.74
82418;BME280;72059;53.734;10.260;2023-12-04T08:58:06;100952.83;;;-2.96;93.74
82418;BME280;72059;53.734;10.260;2023-12-04T09:00:33;100968.39;;;-2.82;93.75
82418;BME280;72059;53.734;10.260;2023-12-04T09:03:02;100970.34;;;-2.80;93.66
82418;BME280;72059;53.734;10.260;2023-12-04T09:05:30;100972.39;;;-2.76;93.58
82418;BME280;72059;53.734;10.260;2023-12-04T09:07:57;100970.51;;;-2.73;93.44
82418;BME280;72059;53.734;10.260;2023-12-04T09:10:25;100970.91;;;-2.68;93.32
82418;BME280;72059;53.734;10.260;2023-12-04T09:12:52;100970.91;;;-2.68;93.32
82418;BME280;72059;53.734;10.260;2023-12-04T09:15:20;100980.63;;;-2.59;93.09
82418;BME280;72059;53.734;10.260;2023-12-04T09:17:47;100981.39;;;-2.60;93.00
82418;BME280;72059;53.734;10.260;2023-12-04T09:20:14;100981.39;;;-2.60;93.00
82418;BME280;72059;53.734;10.260;2023-12-04T09:22:42;100986.20;;;-2.58;92.91
82418;BME280;72059;53.734;10.260;2023-12-04T09:25:10;100978.23;;;-2.57;92.92
82418;BME280;72059;53.734;10.260;2023-12-04T09:27:37;100966.56;;;-2.55;92.99
82418;BME280;72059;53.734;10.260;2023-12-04T09:30:05;100969.25;;;-2.54;92.66
82418;BME280;72059;53.734;10.260;2023-12-04T09:32:33;100968.87;;;-2.53;92.81
82418;BME280;72059;53.734;10.260;2023-12-04T09:35:00;100965.22;;;-2.52;92.86
82418;BME280;72059;53.734;10.260;2023-12-04T09:37:27;100962.83;;;-2.50;92.83
82418;BME280;72059;53.734;10.260;2023-12-04T09:39:55;100959.80;;;-2.46;92.83
82418;BME280;72059;53.734;10.260;2023-12-04T09:42:22;100963.63;;;-2.41;92.75
82418;BME280;72059;53.734;10.260;2023-12-04T09:44:52;100953.27;;;-2.39;92.63
82418;BME280;72059;53.734;10.260;2023-12-04T09:47:20;100961.26;;;-2.34;92.51
82418;BME280;72059;53.734;10.260;2023-12-04T09:49:51;100965.34;;;-2.31;92.31
82418;BME280;72059;53.734;10.260;2023-12-04T09:52:20;100965.34;;;-2.31;92.31
82418;BME280;72059;53.734;10.260;2023-12-04T09:54:47;100933.64;;;-2.31;92.13
82418;BME280;72059;53.734;10.260;2023-12-04T09:57:16;100940.13;;;-2.24;91.91
82418;BME280;72059;53.734;10.260;2023-12-04T09:59:45;100940.13;;;-2.24;91.91
82418;BME280;72059;53.734;10.260;2023-12-04T10:02:14;100951.75;;;-2.12;91.53
82418;BME280;72059;53.734;10.260;2023-12-04T10:04:42;100950.62;;;-2.11;91.45
82418;BME280;72059;53.734;10.260;2023-12-04T10:07:10;100948.59;;;-2.10;91.32
82418;BME280;72059;53.734;10.260;2023-12-04T10:09:37;100946.55;;;-2.09;91.29
82418;BME280;72059;53.734;10.260;2023-12-04T10:12:06;100943.88;;;-2.10;91.11
82418;BME280;72059;53.734;10.260;2023-12-04T10:14:34;100939.84;;;-2.08;91.38
82418;BME280;72059;53.734;10.260;2023-12-04T10:17:14;100938.59;;;-2.03;91.14
82418;BME280;72059;53.734;10.260;2023-12-04T10:19:44;100938.59;;;-2.03;91.14
82418;BME280;72059;53.734;10.260;2023-12-04T10:22:11;100910.03;;;-2.11;90.95
82418;BME280;72059;53.734;10.260;2023-12-04T10:24:40;100910.03;;;-2.11;90.95
82418;BME280;72059;53.734;10.260;2023-12-04T10:27:10;100906.15;;;-1.97;90.50
82418;BME280;72059;53.734;10.260;2023-12-04T10:32:12;100900.94;;;-1.93;90.46
82418;BME280;72059;53.734;10.260;2023-12-04T10:34:41;100907.61;;;-1.79;90.31
82418;BME280;72059;53.734;10.260;2023-12-04T10:37:10;100908.02;;;-1.64;90.07
82418;BME280;72059;53.734;10.260;2023-12-04T10:39:48;100897.52;;;-1.48;89.57
82418;BME280;72059;53.734;10.260;2023-12-04T10:42:24;100900.56;;;-1.42;88.81
82418;BME280;72059;53.734;10.260;2023-12-04T10:44:58;100869.20;;;-1.37;88.36
82418;BME280;72059;53.734;10.260;2023-12-04T10:47:22;100869.20;;;-1.37;88.36
82418;BME280;72059;53.734;10.260;2023-12-04T10:49:50;100879.65;;;-1.24;87.97
82418;BME280;72059;53.734;10.260;2023-12-04T10:52:18;100880.03;;;-1.30;87.52
82418;BME280;72059;53.734;10.260;2023-12-04T10:54:49;100875.31;;;-1.30;87.66
82418;BME280;72059;53.734;10.260;2023-12-04T10:57:27;100876.95;;;-1.31;87.62
82418;BME280;72059;53.734;10.260;2023-12-04T11:00:04;100873.78;;;-1.33;87.50
82418;BME280;72059;53.734;10.260;2023-12-04T11:02:34;100872.38;;;-1.35;87.45
82418;BME280;72059;53.734;10.260;2023-12-04T11:05:08;100873.28;;;-1.34;87.53
82418;BME280;72059;53.734;10.260;2023-12-04T11:07:40;100866.80;;;-1.31;86.82
82418;BME280;72059;53.734;10.260;2023-12-04T11:10:11;100868.81;;;-1.42;86.59
82418;BME280;72059;53.734;10.260;2023-12-04T11:12:43;100864.27;;;-1.41;87.05
82418;BME280;72059;53.734;10.260;2023-12-04T11:15:13;100865.53;;;-1.41;87.19
82418;BME280;72059;53.734;10.260;2023-12-04T11:17:42;100862.36;;;-1.38;87.39
82418;BME280;72059;53.734;10.260;2023-12-04T11:20:12;100854.09;;;-1.36;87.45
82418;BME280;72059;53.734;10.260;2023-12-04T11:22:44;100862.98;;;-1.31;87.39
82418;BME280;72059;53.734;10.260;2023-12-04T11:25:14;100857.66;;;-1.28;87.19
82418;BME280;72059;53.734;10.260;2023-12-04T11:27:43;100852.08;;;-1.30;86.98
82418;BME280;72059;53.734;10.260;2023-12-04T11:30:11;100848.00;;;-1.27;87.08
82418;BME280;72059;53.734;10.260;2023-12-04T11:32:51;100854.11;;;-1.25;87.08
82418;BME280;72059;53.734;10.260;2023-12-04T11:35:21;100850.30;;;-1.25;86.96
82418;BME280;72059;53.734;10.260;2023-12-04T11:37:48;100850.54;;;-1.27;86.95
82418;BME280;72059;53.734;10.260;2023-12-04T11:40:16;100838.73;;;-1.27;87.02
82418;BME280;72059;53.734;10.260;2023-12-04T11:42:44;100844.31;;;-1.26;86.96
82418;BME280;72059;53.734;10.260;2023-12-04T11:45:18;100839.51;;;-1.28;86.86
82418;BME280;72059;53.734;10.260;2023-12-04T11:47:57;100840.37;;;-1.27;86.68
82418;BME280;72059;53.734;10.260;2023-12-04T11:50:25;100836.44;;;-1.29;86.63
82418;BME280;72059;53.734;10.260;2023-12-04T11:52:53;100831.76;;;-1.30;86.62
82418;BME280;72059;53.734;10.260;2023-12-04T11:55:23;100830.11;;;-1.24;86.76
82418;BME280;72059;53.734;10.260;2023-12-04T11:57:53;100825.51;;;-1.18;86.73
82418;BME280;72059;53.734;10.260;2023-12-04T12:00:22;100824.86;;;-1.15;86.62
82418;BME280;72059;53.734;10.260;2023-12-04T12:05:24;100817.89;;;-1.07;86.35
82418;BME280;72059;53.734;10.260;2023-12-04T12:07:52;100818.03;;;-1.11;86.22
82418;BME280;72059;53.734;10.260;2023-12-04T12:10:21;100806.20;;;-1.10;86.28
82418;BME280;72059;53.734;10.260;2023-12-04T12:12:48;100802.51;;;-1.09;86.25
82418;BME280;72059;53.734;10.260;2023-12-04T12:15:16;100797.17;;;-1.12;86.09
82418;BME280;72059;53.734;10.260;2023-12-04T12:17:43;100789.05;;;-1.13;86.09
82418;BME280;72059;53.734;10.260;2023-12-04T12:20:12;100786.51;;;-1.13;86.15
82418;BME280;72059;53.734;10.260;2023-12-04T12:22:40;100786.27;;;-1.11;86.29
82418;BME280;72059;53.734;10.260;2023-12-04T12:25:10;100781.55;;;-1.11;86.21
82418;BME280;72059;53.734;10.260;2023-12-04T12:27:38;100779.02;;;-1.11;86.22
82418;BME280;72059;53.734;10.260;2023-12-04T12:30:06;100769.63;;;-1.12;86.01
82418;BME280;72059;53.734;10.260;2023-12-04T12:32:34;100772.77;;;-1.15;86.03
82418;BME280;72059;53.734;10.260;2023-12-04T12:35:02;100770.88;;;-1.18;85.99
82418;BME280;72059;53.734;10.260;2023-12-04T12:37:34;100764.40;;;-1.19;85.82
82418;BME280;72059;53.734;10.260;2023-12-04T12:40:01;100762.91;;;-1.22;85.89
82418;BME280;72059;53.734;10.260;2023-12-04T12:42:31;100756.55;;;-1.22;85.93
82418;BME280;72059;53.734;10.260;2023-12-04T12:45:01;100754.38;;;-1.23;85.91
82418;BME280;72059;53.734;10.260;2023-12-04T12:47:30;100750.94;;;-1.23;85.79
82418;BME280;72059;53.734;10.260;2023-12-04T12:49:57;100750.81;;;-1.25;86.05